createdAt,value
2018-12-15T00:00:06.811Z,17.97
2018-12-15T00:02:33.683Z,16.50
2018-12-15T00:05:01.297Z,16.77
2018-12-15T00:07:31.628Z,21.67
2018-12-15T00:10:03.515Z,19.33
2018-12-15T00:12:36.335Z,18.50
2018-12-15T00:15:21.975Z,18.17
2018-12-15T00:17:49.557Z,16.83
2018-12-15T00:20:18.479Z,17.00
2018-12-15T00:22:48.176Z,17.10
2018-12-15T00:25:15.400Z,20.70
2018-12-15T00:27:42.719Z,22.47
2018-12-15T00:30:12.337Z,21.53
2018-12-15T00:32:40.664Z,21.57
2018-12-15T00:35:07.733Z,16.57
2018-12-15T00:37:34.731Z,15.33
2018-12-15T00:40:02.296Z,17.57
2018-12-15T00:42:32.449Z,19.27
2018-12-15T00:44:59.450Z,17.17
2018-12-15T00:47:27.229Z,17.60
2018-12-15T00:49:54.711Z,14.97
2018-12-15T00:52:22.154Z,16.73
2018-12-15T00:54:49.491Z,16.23
2018-12-15T00:57:18.379Z,19.07
2018-12-15T00:59:46.101Z,21.07
2018-12-15T01:02:12.557Z,19.13
2018-12-15T01:04:38.812Z,18.27
2018-12-15T01:07:05.118Z,18.07
2018-12-15T01:09:31.399Z,20.10
2018-12-15T01:11:58.955Z,19.47
2018-12-15T01:14:26.063Z,18.03
2018-12-15T01:16:52.496Z,16.87
2018-12-15T01:19:20.616Z,19.00
2018-12-15T01:21:47.957Z,20.60
2018-12-15T01:24:16.182Z,21.77
2018-12-15T01:26:44.696Z,16.67
2018-12-15T01:29:12.864Z,16.07
2018-12-15T01:31:40.336Z,14.17
2018-12-15T01:34:07.542Z,15.77
2018-12-15T01:36:34.833Z,14.27
2018-12-15T01:39:05.694Z,16.70
2018-12-15T01:41:34.355Z,15.27
2018-12-15T01:44:01.902Z,17.33
2018-12-15T01:46:29.881Z,16.80
2018-12-15T01:48:58.064Z,17.70
2018-12-15T01:51:25.076Z,20.68
2018-12-15T01:53:52.500Z,16.97
2018-12-15T01:56:19.637Z,20.67
2018-12-15T01:58:48.431Z,19.30
2018-12-15T02:01:16.191Z,20.17
2018-12-15T02:03:43.985Z,16.33
2018-12-15T02:06:11.890Z,19.67
2018-12-15T02:08:39.868Z,14.83
2018-12-15T02:11:07.390Z,16.83
2018-12-15T02:13:34.532Z,13.03
2018-12-15T02:16:02.782Z,16.20
2018-12-15T02:18:32.700Z,23.70
2018-12-15T02:20:59.302Z,22.53
2018-12-15T02:23:27.202Z,22.00
2018-12-15T02:25:55.514Z,20.67
2018-12-15T02:28:23.312Z,22.83
2018-12-15T02:30:53.217Z,22.03
2018-12-15T02:33:21.806Z,19.67
2018-12-15T02:35:49.152Z,20.23
2018-12-15T02:38:18.256Z,18.33
2018-12-15T02:40:46.435Z,19.00
2018-12-15T02:43:13.292Z,19.20
2018-12-15T02:45:41.555Z,20.90
2018-12-15T02:48:12.091Z,19.40
2018-12-15T02:50:41.628Z,22.53
2018-12-15T02:53:09.962Z,18.73
2018-12-15T02:55:38.138Z,22.30
2018-12-15T02:58:07.051Z,20.43
2018-12-15T03:00:35.601Z,19.80
2018-12-15T03:03:02.922Z,21.10
2018-12-15T03:05:29.998Z,22.07
2018-12-15T03:07:57.081Z,20.40
2018-12-15T03:10:24.182Z,16.17
2018-12-15T03:12:51.832Z,20.20
2018-12-15T03:15:20.043Z,20.60
2018-12-15T03:17:48.975Z,18.27
2018-12-15T03:20:17.021Z,17.20
2018-12-15T03:22:44.257Z,15.30
2018-12-15T03:25:11.703Z,17.00
2018-12-15T03:27:38.854Z,15.00
2018-12-15T03:30:07.343Z,13.73
2018-12-15T03:32:33.738Z,14.23
2018-12-15T03:35:01.947Z,12.00
2018-12-15T03:37:28.320Z,11.87
2018-12-15T03:39:57.595Z,14.33
2018-12-15T03:42:25.529Z,16.07
2018-12-15T03:44:55.430Z,24.00
2018-12-15T03:47:23.351Z,23.17
2018-12-15T03:49:53.751Z,18.47
2018-12-15T03:52:21.958Z,16.00
2018-12-15T03:54:52.676Z,15.43
2018-12-15T03:57:20.768Z,17.73
2018-12-15T03:59:48.200Z,15.80
2018-12-15T04:02:16.147Z,13.70
2018-12-15T04:04:44.934Z,14.87
2018-12-15T04:07:12.837Z,19.17
2018-12-15T04:09:40.315Z,19.13
2018-12-15T04:12:08.463Z,17.07
2018-12-15T04:14:35.881Z,15.43
2018-12-15T04:17:02.954Z,15.07
2018-12-15T04:19:29.837Z,18.03
2018-12-15T04:22:05.087Z,23.13
2018-12-15T04:24:32.593Z,23.13
2018-12-15T04:27:02.788Z,20.53
2018-12-15T04:29:29.903Z,18.17
2018-12-15T04:31:57.086Z,15.73
2018-12-15T04:34:25.589Z,21.67
2018-12-15T04:36:52.550Z,23.10
2018-12-15T04:39:20.575Z,20.80
2018-12-15T04:41:49.998Z,17.87
2018-12-15T04:44:17.395Z,15.70
2018-12-15T04:46:45.164Z,14.30
2018-12-15T04:49:13.173Z,14.83
2018-12-15T04:51:40.676Z,13.23
2018-12-15T04:54:07.068Z,15.50
2018-12-15T04:56:33.389Z,14.50
2018-12-15T04:58:59.673Z,17.30
2018-12-15T05:01:25.942Z,16.33
2018-12-15T05:03:52.276Z,15.90
2018-12-15T05:06:18.549Z,14.27
2018-12-15T05:08:44.830Z,17.60
2018-12-15T05:11:11.125Z,17.27
2018-12-15T05:13:37.403Z,15.37
2018-12-15T05:16:03.657Z,14.77
2018-12-15T05:18:29.918Z,18.33
2018-12-15T05:20:56.193Z,22.87
2018-12-15T05:23:22.477Z,25.00
2018-12-15T05:25:48.758Z,24.47
2018-12-15T05:28:15.086Z,23.73
2018-12-15T05:30:41.366Z,22.30
2018-12-15T05:33:08.693Z,20.77
2018-12-15T05:35:35.629Z,16.87
2018-12-15T05:38:02.020Z,19.57
2018-12-15T05:40:29.580Z,22.70
2018-12-15T05:42:58.512Z,18.43
2018-12-15T05:45:24.985Z,20.17
2018-12-15T05:47:51.254Z,19.43
2018-12-15T05:50:18.755Z,22.87
2018-12-15T05:52:45.980Z,20.80
2018-12-15T05:55:14.708Z,19.50
2018-12-15T05:57:43.189Z,22.53
2018-12-15T06:00:11.974Z,22.70
2018-12-15T06:02:39.344Z,23.50
2018-12-15T06:05:06.711Z,23.23
2018-12-15T06:07:33.548Z,22.67
2018-12-15T06:10:04.660Z,23.07
2018-12-15T06:12:32.823Z,21.63
2018-12-15T06:15:02.837Z,21.00
2018-12-15T06:17:29.952Z,22.87
2018-12-15T06:19:57.968Z,22.40
2018-12-15T06:22:27.264Z,21.47
2018-12-15T06:24:56.667Z,22.87
2018-12-15T06:27:24.726Z,20.10
2018-12-15T06:29:53.611Z,18.73
2018-12-15T06:32:21.807Z,17.80
2018-12-15T06:34:50.299Z,18.67
2018-12-15T06:37:16.787Z,19.37
2018-12-15T06:39:43.066Z,20.77
2018-12-15T06:42:11.365Z,17.10
2018-12-15T06:44:38.563Z,21.23
2018-12-15T06:47:05.174Z,20.63
2018-12-15T06:49:31.872Z,22.70
2018-12-15T06:51:58.156Z,21.20
2018-12-15T06:54:24.442Z,19.93
2018-12-15T06:56:50.757Z,22.60
2018-12-15T06:59:17.095Z,20.57
2018-12-15T07:01:44.223Z,17.40
2018-12-15T07:04:10.869Z,19.90
2018-12-15T07:06:37.400Z,24.83
2018-12-15T07:09:05.135Z,19.60
2018-12-15T07:11:31.612Z,18.47
2018-12-15T07:13:58.187Z,20.07
2018-12-15T07:16:24.543Z,20.93
2018-12-15T07:18:50.995Z,21.03
2018-12-15T07:21:17.448Z,22.70
2018-12-15T07:23:43.982Z,23.07
2018-12-15T07:26:10.687Z,22.47
2018-12-15T07:28:43.603Z,19.57
2018-12-15T07:31:16.218Z,18.93
2018-12-15T07:33:48.708Z,21.63
2018-12-15T07:36:21.476Z,22.37
2018-12-15T07:38:56.405Z,23.03
2018-12-15T07:41:29.004Z,23.37
2018-12-15T07:49:53.082Z,20.87
2018-12-15T07:55:17.141Z,23.70
2018-12-15T07:57:49.409Z,21.40
2018-12-15T08:12:19.027Z,23.50
2018-12-15T08:14:52.259Z,21.33
2018-12-15T08:26:08.472Z,24.13
2018-12-15T08:28:56.072Z,24.23
2018-12-15T08:31:26.130Z,24.73
2018-12-15T08:36:48.704Z,24.93
2018-12-15T08:42:14.726Z,24.83
2018-12-15T08:44:44.949Z,24.17
2018-12-15T08:47:17.306Z,24.20
2018-12-15T08:52:45.193Z,22.97
2018-12-15T08:55:15.314Z,27.37
2018-12-15T09:03:37.922Z,23.10
2018-12-15T09:06:04.304Z,24.13
2018-12-15T09:08:37.251Z,24.67
2018-12-15T09:17:14.961Z,24.10
2018-12-15T09:25:32.952Z,22.47
2018-12-15T09:28:09.251Z,21.67
2018-12-15T09:30:35.547Z,24.73
2018-12-15T09:33:04.954Z,25.47
2018-12-15T09:35:37.261Z,22.73
2018-12-15T09:47:21.759Z,24.90
2018-12-15T09:49:48.182Z,22.13
2018-12-15T09:52:14.600Z,22.03
2018-12-15T09:54:48.681Z,23.30
2018-12-15T09:57:18.508Z,24.73
2018-12-15T09:59:44.959Z,29.67
2018-12-15T10:08:06.676Z,21.93
2018-12-15T10:10:34.421Z,21.90
2018-12-15T10:13:00.995Z,24.27
2018-12-15T10:15:27.313Z,23.10
2018-12-15T10:17:53.599Z,22.53
2018-12-15T10:20:26.343Z,22.10
2018-12-15T10:22:52.670Z,23.03
2018-12-15T10:25:19.067Z,26.50
2018-12-15T10:27:45.369Z,23.63
2018-12-15T10:30:17.830Z,22.37
2018-12-15T10:32:53.988Z,22.53
2018-12-15T10:35:20.824Z,22.97
2018-12-15T10:37:47.444Z,24.17
2018-12-15T10:40:13.834Z,22.80
2018-12-15T10:42:40.211Z,22.50
2018-12-15T10:48:01.884Z,22.43
2018-12-15T10:50:28.128Z,21.63
2018-12-15T10:52:54.344Z,19.27
2018-12-15T10:55:20.673Z,21.70
2018-12-15T10:57:46.954Z,21.93
2018-12-15T11:00:19.497Z,21.43
2018-12-15T11:02:47.206Z,20.13
2018-12-15T11:05:13.525Z,20.83
2018-12-15T11:07:40.865Z,20.70
2018-12-15T11:10:07.200Z,21.87
2018-12-15T11:12:33.536Z,20.93
2018-12-15T11:14:59.834Z,21.60
2018-12-15T11:17:26.127Z,21.37
2018-12-15T11:31:40.195Z,21.33
2018-12-15T11:34:06.490Z,22.70
2018-12-15T11:36:32.796Z,20.67
2018-12-15T11:39:00.183Z,27.07
2018-12-15T11:41:26.491Z,22.23
2018-12-15T11:43:52.816Z,20.90
2018-12-15T11:49:18.465Z,21.70
2018-12-15T11:51:46.851Z,21.57
2018-12-15T11:54:13.746Z,21.87
2018-12-15T11:56:42.095Z,22.50
2018-12-15T11:59:08.441Z,23.40
2018-12-15T12:01:34.741Z,20.27
2018-12-15T12:04:01.020Z,20.57
2018-12-15T12:06:27.838Z,21.20
2018-12-15T12:08:54.252Z,26.17
2018-12-15T12:11:20.520Z,24.50
2018-12-15T12:13:46.802Z,23.10
2018-12-15T12:16:13.060Z,23.97
2018-12-15T12:18:39.331Z,23.80
2018-12-15T12:21:05.670Z,23.10
2018-12-15T12:23:31.931Z,21.83
2018-12-15T12:25:59.065Z,25.17
2018-12-15T12:28:25.510Z,24.67
2018-12-15T12:30:51.957Z,24.87
2018-12-15T12:33:18.265Z,25.87
2018-12-15T12:35:44.571Z,24.17
2018-12-15T12:38:10.859Z,21.77
2018-12-15T12:40:37.287Z,23.13
2018-12-15T12:43:03.709Z,21.20
2018-12-15T12:45:30.062Z,22.17
2018-12-15T12:47:58.046Z,18.83
2018-12-15T12:50:25.476Z,25.70
2018-12-15T12:52:55.354Z,23.73
2018-12-15T12:55:21.794Z,22.70
2018-12-15T12:57:48.184Z,22.83
2018-12-15T13:00:14.560Z,18.13
2018-12-15T13:02:40.848Z,19.80
2018-12-15T13:05:07.422Z,19.90
2018-12-15T13:07:33.714Z,22.37
2018-12-15T13:10:00.026Z,20.30
2018-12-15T13:12:26.468Z,26.83
2018-12-15T13:14:53.245Z,21.63
2018-12-15T13:17:19.562Z,21.07
2018-12-15T13:19:46.011Z,20.53
2018-12-15T13:22:14.571Z,18.53
2018-12-15T13:24:41.164Z,19.63
2018-12-15T13:27:07.839Z,19.73
2018-12-15T13:29:34.320Z,19.83
2018-12-15T13:32:01.105Z,19.40
2018-12-15T13:34:27.761Z,19.03
2018-12-15T13:36:54.121Z,19.30
2018-12-15T13:39:20.478Z,18.90
2018-12-15T13:41:47.835Z,19.80
2018-12-15T13:44:14.203Z,21.07
2018-12-15T13:46:40.515Z,20.50
2018-12-15T13:49:06.816Z,21.73
2018-12-15T13:51:33.071Z,19.97
2018-12-15T13:53:59.412Z,20.90
2018-12-15T13:56:25.676Z,20.93
2018-12-15T13:58:51.971Z,20.93
2018-12-15T14:01:19.455Z,22.03
2018-12-15T14:03:45.836Z,23.10
2018-12-15T14:06:12.153Z,25.90
2018-12-15T14:08:38.402Z,20.67
2018-12-15T14:11:04.711Z,20.90
2018-12-15T14:13:30.940Z,22.47
2018-12-15T14:15:57.180Z,21.90
2018-12-15T14:18:23.485Z,23.67
2018-12-15T14:20:49.758Z,22.03
2018-12-15T14:23:16.137Z,20.90
2018-12-15T14:25:42.409Z,20.07
2018-12-15T14:28:08.682Z,20.87
2018-12-15T14:30:34.937Z,20.90
2018-12-15T14:33:01.204Z,20.03
2018-12-15T14:35:27.448Z,20.97
2018-12-15T14:37:53.717Z,21.93
2018-12-15T14:40:20.004Z,22.80
2018-12-15T14:42:46.274Z,21.20
2018-12-15T14:45:12.635Z,21.53
2018-12-15T14:47:38.892Z,22.27
2018-12-15T14:50:05.460Z,21.70
2018-12-15T14:52:31.713Z,19.67
2018-12-15T14:54:58.049Z,21.50
2018-12-15T14:57:24.296Z,21.43
2018-12-15T14:59:50.613Z,19.87
2018-12-15T15:02:16.929Z,19.40
2018-12-15T15:04:43.223Z,23.67
2018-12-15T15:07:09.799Z,22.77
2018-12-15T15:09:36.086Z,22.40
2018-12-15T15:12:02.358Z,22.23
2018-12-15T15:14:28.652Z,23.27
2018-12-15T15:16:54.988Z,23.37
2018-12-15T15:19:21.282Z,22.53
2018-12-15T15:21:48.720Z,22.30
2018-12-15T15:24:15.016Z,23.27
2018-12-15T15:26:41.406Z,22.70
2018-12-15T15:29:07.795Z,23.07
2018-12-15T15:31:34.392Z,23.63
2018-12-15T15:34:00.669Z,25.53
2018-12-15T15:36:27.984Z,23.63
2018-12-15T15:38:54.266Z,24.27
2018-12-15T15:41:20.625Z,22.80
2018-12-15T15:43:46.974Z,25.20
2018-12-15T15:46:14.609Z,24.20
2018-12-15T15:48:41.085Z,25.03
2018-12-15T15:51:07.344Z,22.80
2018-12-15T15:53:33.662Z,23.20
2018-12-15T15:56:01.091Z,26.20
2018-12-15T15:58:27.448Z,23.67
2018-12-15T16:00:53.841Z,21.50
2018-12-15T16:03:20.139Z,23.20
2018-12-15T16:05:46.463Z,22.93
2018-12-15T16:08:12.748Z,22.33
2018-12-15T16:10:40.413Z,22.90
2018-12-15T16:13:06.936Z,24.23
2018-12-15T16:15:33.230Z,22.10
2018-12-15T16:17:59.842Z,23.30
2018-12-15T16:20:26.190Z,23.43
2018-12-15T16:22:52.713Z,24.80
2018-12-15T16:25:19.157Z,22.83
2018-12-15T16:27:45.535Z,22.73
2018-12-15T16:30:12.931Z,23.47
2018-12-15T16:32:39.497Z,22.97
2018-12-15T16:35:06.089Z,23.50
2018-12-15T16:37:33.528Z,23.43
2018-12-15T16:39:59.876Z,23.43
2018-12-15T16:42:26.171Z,21.10
2018-12-15T16:44:52.502Z,26.50
2018-12-15T16:47:18.860Z,23.47
2018-12-15T16:49:45.156Z,23.60
2018-12-15T16:52:11.446Z,23.27
2018-12-15T16:54:37.768Z,23.33
2018-12-15T16:57:05.221Z,22.83
2018-12-15T16:59:31.499Z,22.73
2018-12-15T17:01:57.791Z,24.83
2018-12-15T17:04:25.117Z,24.77
2018-12-15T17:06:51.413Z,23.70
2018-12-15T17:09:17.726Z,22.13
2018-12-15T17:11:44.042Z,21.20
2018-12-15T17:14:10.349Z,23.53
2018-12-15T17:16:36.672Z,22.47
2018-12-15T17:19:03.214Z,22.77
2018-12-15T17:21:29.646Z,21.00
2018-12-15T17:23:55.950Z,22.73
2018-12-15T17:26:22.254Z,24.23
2018-12-15T17:28:48.607Z,23.23
2018-12-15T17:31:16.972Z,22.77
2018-12-15T17:33:43.268Z,20.20
2018-12-15T17:36:09.560Z,23.03
2018-12-15T17:38:35.862Z,21.40
2018-12-15T17:41:02.195Z,21.47
2018-12-15T17:43:28.509Z,21.70
2018-12-15T17:45:54.821Z,22.03
2018-12-15T17:48:21.177Z,22.77
2018-12-15T17:50:48.507Z,22.23
2018-12-15T17:53:15.009Z,20.90
2018-12-15T17:55:41.410Z,20.13
2018-12-15T17:58:07.706Z,21.37
2018-12-15T18:00:35.090Z,22.00
2018-12-15T18:03:01.377Z,23.27
2018-12-15T18:05:28.701Z,23.03
2018-12-15T18:07:54.962Z,20.10
2018-12-15T18:10:21.311Z,22.03
2018-12-15T18:12:47.631Z,21.03
2018-12-15T18:15:15.099Z,22.53
2018-12-15T18:17:41.685Z,21.83
2018-12-15T18:20:08.073Z,23.20
2018-12-15T18:22:34.313Z,24.73
2018-12-15T18:25:00.660Z,23.83
2018-12-15T18:27:26.984Z,20.43
2018-12-15T18:29:53.302Z,22.13
2018-12-15T18:32:19.598Z,21.67
2018-12-15T18:34:45.946Z,21.30
2018-12-15T18:37:13.319Z,20.00
2018-12-15T18:39:39.636Z,19.77
2018-12-15T18:42:10.901Z,21.50
2018-12-15T18:44:34.271Z,22.60
2018-12-15T18:47:00.720Z,22.07
2018-12-15T18:49:27.203Z,21.53
2018-12-15T18:51:53.551Z,18.67
2018-12-15T18:54:20.040Z,19.97
2018-12-15T18:56:46.615Z,22.17
2018-12-15T18:59:13.053Z,21.33
2018-12-15T19:01:39.410Z,19.47
2018-12-15T19:04:06.664Z,21.03
2018-12-15T19:06:33.036Z,21.60
2018-12-15T19:09:04.008Z,19.53
2018-12-15T19:11:27.730Z,19.50
2018-12-15T19:13:54.009Z,22.93
2018-12-15T19:16:20.312Z,19.53
2018-12-15T19:18:46.637Z,18.30
2018-12-15T19:21:12.932Z,16.93
2018-12-15T19:23:39.208Z,14.07
2018-12-15T19:26:05.870Z,14.43
2018-12-15T19:28:32.369Z,13.87
2018-12-15T19:30:58.740Z,13.53
2018-12-15T19:33:25.165Z,14.80
2018-12-15T19:35:51.549Z,21.10
2018-12-15T19:38:17.976Z,21.53
2018-12-15T19:40:44.401Z,25.17
2018-12-15T19:43:10.715Z,21.70
2018-12-15T19:45:36.976Z,20.43
2018-12-15T19:48:03.524Z,18.13
2018-12-15T19:50:29.782Z,20.30
2018-12-15T19:52:56.199Z,19.40
2018-12-15T19:55:23.604Z,22.03
2018-12-15T19:57:49.950Z,18.37
2018-12-15T20:00:16.340Z,19.53
2018-12-15T20:02:42.650Z,18.47
2018-12-15T20:05:08.949Z,16.10
2018-12-15T20:07:35.252Z,16.20
2018-12-15T20:10:01.759Z,15.17
2018-12-15T20:12:28.129Z,16.07
2018-12-15T20:14:54.493Z,16.63
2018-12-15T20:17:20.772Z,15.87
2018-12-15T20:19:47.033Z,15.13
2018-12-15T20:22:13.369Z,13.77
2018-12-15T20:24:39.580Z,13.57
2018-12-15T20:27:05.946Z,13.07
2018-12-15T20:29:34.392Z,12.27
2018-12-15T20:32:00.691Z,11.13
2018-12-15T20:34:27.060Z,10.47
2018-12-15T20:36:53.390Z,9.93
2018-12-15T20:39:19.705Z,12.20
2018-12-15T20:41:46.040Z,17.43
2018-12-15T20:44:12.318Z,17.17
2018-12-15T20:46:42.287Z,19.90
2018-12-15T20:49:08.788Z,22.33
2018-12-15T20:51:35.149Z,18.20
2018-12-15T20:54:25.048Z,17.30
2018-12-15T20:56:51.969Z,15.53
2018-12-15T20:59:19.351Z,16.17
2018-12-15T21:01:45.767Z,16.93
2018-12-15T21:04:24.601Z,16.23
2018-12-15T21:06:51.039Z,14.00
2018-12-15T21:09:17.329Z,15.00
2018-12-15T21:11:43.591Z,14.37
2018-12-15T21:14:10.099Z,16.07
2018-12-15T21:16:36.415Z,14.93
2018-12-15T21:19:02.757Z,15.73
2018-12-15T21:21:29.013Z,18.73
2018-12-15T21:23:55.288Z,21.37
2018-12-15T21:26:21.579Z,21.33
2018-12-15T21:28:47.888Z,21.20
2018-12-15T21:31:14.244Z,21.43
2018-12-15T21:33:40.515Z,21.10
2018-12-15T21:36:06.838Z,18.10
2018-12-15T21:38:33.099Z,15.80
2018-12-15T21:40:59.401Z,15.10
2018-12-15T21:43:25.698Z,14.13
2018-12-15T21:45:51.980Z,15.20
2018-12-15T21:48:18.228Z,14.60
2018-12-15T21:50:44.529Z,13.13
2018-12-15T21:53:10.849Z,14.20
2018-12-15T21:55:37.136Z,12.63
2018-12-15T21:58:03.467Z,10.80
2018-12-15T22:00:29.718Z,11.17
2018-12-15T22:02:56.000Z,10.13
2018-12-15T22:05:22.383Z,12.17
2018-12-15T22:07:48.692Z,12.97
2018-12-15T22:10:14.996Z,12.33
2018-12-15T22:12:41.487Z,12.90
2018-12-15T22:15:08.098Z,13.77
2018-12-15T22:17:34.381Z,13.17
2018-12-15T22:20:00.676Z,16.30
2018-12-15T22:22:26.943Z,14.33
2018-12-15T22:24:53.258Z,15.63
2018-12-15T22:27:19.592Z,14.40
2018-12-15T22:29:45.953Z,13.63
2018-12-15T22:32:12.701Z,13.87
2018-12-15T22:34:38.980Z,12.90
2018-12-15T22:37:05.285Z,12.97
2018-12-15T22:39:31.643Z,12.20
2018-12-15T22:41:57.980Z,12.80
2018-12-15T22:44:24.245Z,12.23
2018-12-15T22:46:50.513Z,13.00
2018-12-15T22:49:16.814Z,16.17
2018-12-15T22:51:43.132Z,16.77
2018-12-15T22:54:09.444Z,18.73
2018-12-15T22:56:35.880Z,19.37
2018-12-15T22:59:02.171Z,17.30
2018-12-15T23:01:30.466Z,17.20
2018-12-15T23:03:56.835Z,18.30
2018-12-15T23:06:23.194Z,19.70
2018-12-15T23:08:49.624Z,18.03
2018-12-15T23:11:15.988Z,18.10
2018-12-15T23:13:42.294Z,24.33
2018-12-15T23:16:08.593Z,18.53
2018-12-15T23:18:34.858Z,18.13
2018-12-15T23:21:01.156Z,17.10
2018-12-15T23:23:27.454Z,17.00
2018-12-15T23:25:53.777Z,19.23
2018-12-15T23:28:20.061Z,21.07
2018-12-15T23:30:46.407Z,20.10
2018-12-15T23:33:12.698Z,17.93
2018-12-15T23:35:39.034Z,22.43
2018-12-15T23:38:05.367Z,22.40
2018-12-15T23:40:31.638Z,22.47
2018-12-15T23:42:57.926Z,20.10
2018-12-15T23:45:24.292Z,18.77
2018-12-15T23:47:50.581Z,16.20
2018-12-15T23:50:16.967Z,19.87
2018-12-15T23:52:43.226Z,19.03
2018-12-15T23:55:09.532Z,24.03
2018-12-15T23:57:35.849Z,22.80
